createdAt,value
2019-02-19T00:04:10.178Z,12.73
2019-02-19T00:09:15.870Z,12.00
2019-02-19T00:14:21.729Z,10.23
2019-02-19T00:19:27.398Z,10.03
2019-02-19T00:24:32.487Z,10.57
2019-02-19T00:29:38.929Z,8.23
2019-02-19T00:34:48.632Z,13.03
2019-02-19T00:39:55.483Z,9.23
2019-02-19T00:45:01.335Z,11.00
2019-02-19T00:50:09.607Z,14.87
2019-02-19T00:55:15.985Z,13.20
2019-02-19T01:00:22.572Z,10.17
2019-02-19T01:05:27.743Z,10.77
2019-02-19T01:10:39.774Z,8.20
2019-02-19T01:15:46.745Z,12.93
2019-02-19T01:20:51.786Z,9.80
2019-02-19T01:25:56.848Z,10.77
2019-02-19T01:31:02.888Z,8.00
2019-02-19T01:36:08.184Z,12.90
2019-02-19T01:41:13.561Z,7.83
2019-02-19T01:46:18.367Z,8.00
2019-02-19T01:51:22.948Z,10.97
2019-02-19T01:56:27.944Z,7.80
2019-02-19T02:01:33.761Z,10.47
2019-02-19T02:06:46.888Z,12.23
2019-02-19T02:11:53.010Z,9.10
2019-02-19T02:17:01.077Z,13.23
2019-02-19T02:22:09.251Z,15.73
2019-02-19T02:27:15.197Z,9.97
2019-02-19T02:32:23.767Z,14.17
2019-02-19T02:37:33.696Z,15.00
2019-02-19T02:42:39.351Z,12.40
2019-02-19T02:47:48.581Z,13.93
2019-02-19T02:52:53.427Z,12.73
2019-02-19T02:57:58.916Z,13.87
2019-02-19T03:03:04.242Z,17.13
2019-02-19T03:08:09.358Z,20.20
2019-02-19T03:13:14.623Z,14.80
2019-02-19T03:18:20.658Z,15.67
2019-02-19T03:23:26.659Z,17.07
2019-02-19T03:28:32.108Z,16.00
2019-02-19T03:33:37.035Z,18.63
2019-02-19T03:38:41.891Z,27.30
2019-02-19T03:43:47.293Z,21.77
2019-02-19T03:48:52.553Z,18.93
2019-02-19T03:53:58.560Z,15.33
2019-02-19T03:59:03.561Z,20.90
2019-02-19T04:04:08.524Z,27.07
2019-02-19T04:09:13.860Z,25.77
2019-02-19T04:14:19.100Z,15.10
2019-02-19T04:19:24.120Z,15.57
2019-02-19T04:24:29.090Z,21.43
2019-02-19T04:29:33.426Z,18.93
2019-02-19T04:34:38.140Z,18.33
2019-02-19T04:39:43.324Z,15.80
2019-02-19T04:44:48.018Z,17.87
2019-02-19T04:49:55.077Z,21.83
2019-02-19T04:54:59.949Z,27.33
2019-02-19T05:00:05.675Z,23.93
2019-02-19T05:05:10.942Z,15.00
2019-02-19T05:10:15.857Z,19.50
2019-02-19T05:15:20.079Z,16.63
2019-02-19T05:20:24.884Z,19.83
2019-02-19T05:25:29.748Z,15.93
2019-02-19T05:30:35.039Z,22.27
2019-02-19T05:35:40.002Z,26.27
2019-02-19T05:45:52.580Z,26.20
2019-02-19T05:51:00.225Z,24.93
2019-02-19T05:56:04.990Z,17.90
2019-02-19T06:01:10.002Z,25.87
2019-02-19T06:06:14.214Z,30.03
2019-02-19T06:11:18.534Z,28.73
2019-02-19T06:16:23.344Z,33.63
2019-02-19T06:21:28.380Z,26.57
2019-02-19T06:26:33.071Z,18.07
2019-02-19T06:31:38.604Z,27.77
2019-02-19T06:36:43.092Z,27.17
2019-02-19T06:41:47.820Z,25.83
2019-02-19T06:46:52.965Z,28.53
2019-02-19T06:52:00.436Z,28.33
2019-02-19T06:57:07.526Z,24.67
2019-02-19T07:02:26.722Z,23.50
2019-02-19T07:07:33.974Z,20.20
2019-02-19T07:12:39.253Z,23.23
2019-02-19T07:17:43.432Z,21.07
2019-02-19T07:22:47.585Z,17.63
2019-02-19T07:27:52.945Z,15.73
2019-02-19T07:32:57.993Z,16.30
2019-02-19T07:38:02.594Z,21.07
2019-02-19T07:43:08.584Z,16.57
2019-02-19T07:48:14.122Z,15.73
2019-02-19T07:53:18.381Z,16.87
2019-02-19T07:58:25.686Z,15.10
2019-02-19T08:03:30.570Z,19.13
2019-02-19T08:08:35.936Z,16.80
2019-02-19T08:13:40.216Z,17.97
2019-02-19T08:18:45.169Z,23.83
2019-02-19T08:23:50.523Z,26.47
2019-02-19T08:29:07.102Z,16.00
2019-02-19T08:34:11.375Z,22.27
2019-02-19T08:39:17.768Z,20.33
2019-02-19T08:44:26.286Z,20.80
2019-02-19T08:49:31.221Z,18.83
2019-02-19T08:54:35.913Z,14.97
2019-02-19T08:59:40.257Z,15.70
2019-02-19T09:04:48.012Z,16.97
2019-02-19T09:10:02.179Z,14.00
2019-02-19T09:15:13.674Z,16.33
2019-02-19T09:20:23.215Z,20.50
2019-02-19T09:25:28.695Z,14.70
2019-02-19T09:30:36.447Z,15.77
2019-02-19T09:35:41.801Z,11.93
2019-02-19T09:40:50.812Z,12.10
2019-02-19T09:45:59.070Z,13.40
2019-02-19T09:51:05.499Z,15.07
2019-02-19T10:01:13.788Z,13.13
2019-02-19T10:06:26.196Z,11.30
2019-02-19T10:11:31.830Z,11.90
2019-02-19T10:16:41.694Z,17.67
2019-02-19T10:21:46.847Z,9.83
2019-02-19T10:26:52.163Z,15.57
2019-02-19T10:32:06.029Z,12.67
2019-02-19T10:37:15.847Z,12.40
2019-02-19T10:42:28.869Z,8.73
2019-02-19T10:47:35.965Z,11.20
2019-02-19T10:52:43.229Z,13.93
2019-02-19T10:58:01.653Z,9.97
2019-02-19T11:03:09.990Z,10.57
2019-02-19T11:08:15.349Z,12.30
2019-02-19T11:13:23.636Z,13.27
2019-02-19T11:18:29.941Z,12.20
2019-02-19T11:23:40.707Z,11.20
2019-02-19T11:28:47.818Z,8.80
2019-02-19T11:33:55.250Z,11.53
2019-02-19T11:39:08.161Z,9.23
2019-02-19T11:44:13.245Z,12.90
2019-02-19T11:49:21.451Z,9.43
2019-02-19T11:59:59.679Z,13.13
2019-02-19T12:05:06.879Z,8.80
2019-02-19T12:10:16.056Z,11.20
2019-02-19T12:15:21.391Z,9.00
2019-02-19T12:20:27.602Z,13.90
2019-02-19T12:25:32.603Z,11.20
2019-02-19T12:30:38.092Z,9.10
2019-02-19T12:35:46.356Z,14.80
2019-02-19T12:40:51.616Z,12.67
2019-02-19T12:45:56.974Z,10.07
2019-02-19T12:51:02.196Z,7.07
2019-02-19T12:56:09.540Z,9.93
2019-02-19T13:01:17.397Z,12.97
2019-02-19T13:06:23.325Z,11.10
2019-02-19T13:11:30.310Z,9.37
2019-02-19T13:21:39.946Z,7.63
2019-02-19T13:26:47.067Z,7.43
2019-02-19T13:31:52.419Z,9.73
2019-02-19T13:36:59.799Z,10.83
2019-02-19T13:42:05.649Z,9.30
2019-02-19T13:47:13.929Z,4.47
2019-02-19T13:52:31.968Z,7.13
2019-02-19T13:57:37.682Z,8.73
2019-02-19T14:02:42.530Z,8.50
2019-02-19T14:07:47.795Z,6.37
2019-02-19T14:12:54.816Z,9.20
2019-02-19T14:18:00.341Z,6.33
2019-02-19T14:23:19.275Z,11.60
2019-02-19T14:29:01.757Z,10.80
2019-02-19T14:34:28.421Z,7.60
2019-02-19T14:39:52.682Z,9.77
2019-02-19T14:45:25.864Z,9.30
2019-02-19T14:50:56.540Z,11.70
2019-02-19T14:56:23.560Z,5.67
2019-02-19T15:01:53.589Z,7.53
2019-02-19T15:07:20.272Z,5.37
2019-02-19T21:25:16.405Z,14.93
2019-02-19T21:30:20.677Z,15.00
2019-02-19T21:35:25.724Z,10.60
2019-02-19T21:40:30.283Z,15.70
2019-02-19T21:45:34.369Z,11.10
2019-02-19T21:50:38.650Z,13.53
2019-02-19T21:55:43.507Z,11.20
2019-02-19T22:00:48.352Z,11.47
2019-02-19T22:05:53.323Z,16.47
2019-02-19T22:10:58.088Z,10.23
2019-02-19T22:16:02.376Z,16.03
2019-02-19T22:21:38.493Z,14.23
2019-02-19T22:26:43.476Z,14.20
2019-02-19T22:31:48.422Z,13.43
2019-02-19T22:36:53.192Z,16.80
2019-02-19T22:41:57.622Z,15.43
2019-02-19T22:47:02.200Z,10.87
2019-02-19T22:52:12.582Z,12.57
2019-02-19T22:57:16.133Z,15.33
2019-02-19T23:02:28.907Z,16.27
2019-02-19T23:07:37.346Z,12.83
2019-02-19T23:12:42.213Z,15.90
2019-02-19T23:17:47.005Z,17.40
2019-02-19T23:22:51.972Z,20.60
2019-02-19T23:27:56.812Z,14.10
2019-02-19T23:33:00.957Z,14.30
2019-02-19T23:38:07.384Z,13.83
2019-02-19T23:43:14.888Z,14.93
2019-02-19T23:48:18.939Z,10.90
2019-02-19T23:53:23.112Z,11.57
2019-02-19T23:58:27.489Z,13.77
